createdAt,value
2022-10-23T00:01:42.248Z,93.77
2022-10-23T00:06:42.193Z,94.08
2022-10-23T00:11:42.102Z,94.38
2022-10-23T00:16:42.151Z,93.77
2022-10-23T00:21:42.083Z,93.67
2022-10-23T00:26:41.932Z,94.38
2022-10-23T00:31:41.921Z,94.28
2022-10-23T00:36:41.840Z,94.59
2022-10-23T00:41:41.807Z,94.38
2022-10-23T00:46:41.768Z,94.43
2022-10-23T00:51:41.692Z,94.53
2022-10-23T00:56:41.715Z,94.53
2022-10-23T01:01:41.721Z,94.63
2022-10-23T01:06:41.578Z,93.55
2022-10-23T01:11:41.514Z,93.50
2022-10-23T01:16:50.333Z,94.11
2022-10-23T01:21:41.349Z,94.52
2022-10-23T01:26:41.316Z,95.43
2022-10-23T01:31:41.236Z,95.69
2022-10-23T01:36:41.186Z,95.54
2022-10-23T01:41:44.546Z,95.24
2022-10-23T01:46:41.218Z,95.00
2022-10-23T01:51:41.185Z,94.48
2022-10-23T01:56:40.978Z,94.48
2022-10-23T02:01:41.122Z,94.28
2022-10-23T02:06:40.954Z,93.93
2022-10-23T02:11:40.848Z,93.93
2022-10-23T02:16:40.778Z,93.83
2022-10-23T02:21:40.696Z,93.57
2022-10-23T02:26:40.776Z,94.13
2022-10-23T02:31:40.677Z,93.48
2022-10-23T02:36:40.705Z,93.28
2022-10-23T02:41:41.566Z,92.87
2022-10-23T02:46:40.604Z,92.47
2022-10-23T02:51:40.397Z,92.26
2022-10-23T02:56:40.331Z,91.96
2022-10-23T03:01:40.369Z,91.75
2022-10-23T03:06:40.211Z,91.96
2022-10-23T03:11:40.305Z,92.06
2022-10-23T03:16:40.229Z,92.30
2022-10-23T03:21:40.157Z,92.30
2022-10-23T03:26:40.090Z,92.71
2022-10-23T03:31:40.035Z,93.18
2022-10-23T03:36:39.953Z,92.42
2022-10-23T03:41:39.872Z,91.56
2022-10-23T03:46:39.830Z,90.20
2022-10-23T03:51:39.764Z,90.00
2022-10-23T03:56:39.688Z,89.90
2022-10-23T04:01:39.840Z,89.59
2022-10-23T04:06:39.689Z,89.70
2022-10-23T04:11:39.586Z,89.70
2022-10-23T04:16:39.508Z,89.90
2022-10-23T04:21:39.448Z,88.90
2022-10-23T04:26:39.399Z,87.34
2022-10-23T04:31:39.336Z,88.09
2022-10-23T04:36:39.274Z,87.59
2022-10-23T04:41:39.204Z,87.38
2022-10-23T04:46:39.237Z,88.44
2022-10-23T04:51:39.158Z,88.75
2022-10-23T04:56:39.083Z,87.59
2022-10-23T05:01:39.212Z,89.04
2022-10-23T05:06:39.076Z,87.99
2022-10-23T05:11:38.990Z,88.95
2022-10-23T05:16:38.852Z,89.80
2022-10-23T05:21:38.806Z,89.25
2022-10-23T05:26:38.747Z,89.19
2022-10-23T05:31:38.692Z,89.80
2022-10-23T05:36:38.654Z,89.70
2022-10-23T05:41:39.389Z,89.80
2022-10-23T05:46:38.620Z,90.20
2022-10-23T05:51:38.546Z,88.90
2022-10-23T05:56:38.554Z,88.60
2022-10-23T06:01:38.584Z,87.89
2022-10-23T06:06:38.380Z,87.34
2022-10-23T06:11:38.294Z,86.73
2022-10-23T06:16:38.203Z,85.68
2022-10-23T06:21:38.151Z,84.53
2022-10-23T06:26:38.171Z,84.63
2022-10-23T06:31:38.112Z,84.02
2022-10-23T06:36:38.078Z,84.02
2022-10-23T06:41:38.008Z,83.41
2022-10-23T06:46:37.929Z,82.22
2022-10-23T06:51:37.841Z,80.77
2022-10-23T06:56:37.787Z,80.57
2022-10-23T07:01:38.027Z,81.37
2022-10-23T07:06:37.766Z,81.71
2022-10-23T07:11:38.132Z,81.37
2022-10-23T07:16:37.539Z,82.32
2022-10-23T07:21:37.476Z,82.87
2022-10-23T07:26:37.530Z,82.46
2022-10-23T07:31:37.379Z,81.68
2022-10-23T07:36:37.306Z,80.97
2022-10-23T07:41:37.261Z,79.82
2022-10-23T07:46:37.396Z,79.38
2022-10-23T07:51:38.241Z,78.17
2022-10-23T07:56:37.099Z,79.01
2022-10-23T08:01:37.184Z,77.22
2022-10-23T08:06:36.973Z,76.18
2022-10-23T08:11:36.940Z,76.44
2022-10-23T08:16:36.880Z,75.20
2022-10-23T08:21:36.985Z,74.26
2022-10-23T08:26:36.771Z,73.32
2022-10-23T08:31:36.711Z,73.18
2022-10-23T08:36:36.638Z,73.04
2022-10-23T08:41:36.608Z,71.83
2022-10-23T08:46:36.639Z,71.20
2022-10-23T08:51:36.611Z,72.00
2022-10-23T08:56:36.442Z,71.50
2022-10-23T09:01:36.504Z,70.86
2022-10-23T09:06:36.334Z,70.16
2022-10-23T09:11:36.342Z,69.39
2022-10-23T09:16:36.394Z,69.06
2022-10-23T09:21:36.321Z,68.99
2022-10-23T09:26:36.125Z,68.35
2022-10-23T09:31:36.126Z,67.65
2022-10-23T09:36:35.994Z,68.15
2022-10-23T09:41:35.996Z,67.25
2022-10-23T09:46:35.926Z,67.32
2022-10-23T09:51:35.861Z,66.82
2022-10-23T09:56:35.840Z,68.39
2022-10-23T10:01:35.872Z,66.25
2022-10-23T10:06:35.788Z,66.42
2022-10-23T10:11:35.692Z,66.89
2022-10-23T10:16:36.049Z,65.75
2022-10-23T10:21:35.506Z,65.12
2022-10-23T10:26:35.447Z,65.22
2022-10-23T10:31:35.401Z,66.25
2022-10-23T10:36:35.455Z,65.62
2022-10-23T10:41:35.299Z,64.62
2022-10-23T10:46:35.333Z,64.89
2022-10-23T10:51:35.179Z,65.39
2022-10-23T10:56:35.154Z,64.92
2022-10-23T11:01:35.238Z,64.69
2022-10-23T11:06:35.072Z,64.92
2022-10-23T11:11:34.972Z,64.45
2022-10-23T11:16:35.061Z,63.32
2022-10-23T11:21:34.934Z,63.59
2022-10-23T11:26:34.907Z,62.26
2022-10-23T11:31:34.839Z,62.99
2022-10-23T11:36:34.717Z,62.22
2022-10-23T11:41:34.686Z,63.72
2022-10-23T11:46:34.749Z,62.62
2022-10-23T11:51:34.626Z,63.49
2022-10-23T11:56:34.596Z,64.19
2022-10-23T12:01:34.524Z,63.79
2022-10-23T12:06:34.432Z,63.56
2022-10-23T12:11:34.379Z,65.69
2022-10-23T12:16:34.427Z,65.48
2022-10-23T12:21:34.234Z,64.55
2022-10-23T12:26:34.290Z,64.32
2022-10-23T12:31:34.169Z,63.92
2022-10-23T12:36:34.071Z,64.42
2022-10-23T12:41:34.097Z,64.06
2022-10-23T12:46:33.981Z,64.22
2022-10-23T12:51:33.913Z,64.83
2022-10-23T12:56:35.244Z,64.72
2022-10-23T13:01:33.911Z,64.59
2022-10-23T13:06:33.763Z,65.42
2022-10-23T13:11:33.699Z,64.72
2022-10-23T13:16:33.820Z,64.29
2022-10-23T13:21:33.785Z,64.72
2022-10-23T13:26:35.747Z,65.55
2022-10-23T13:31:33.538Z,66.02
2022-10-23T13:36:33.469Z,66.02
2022-10-23T13:41:33.374Z,65.72
2022-10-23T13:46:33.363Z,66.02
2022-10-23T13:51:33.261Z,64.83
2022-10-23T13:56:41.388Z,65.52
2022-10-23T14:01:34.365Z,64.98
2022-10-23T14:06:33.237Z,65.45
2022-10-23T14:11:33.175Z,64.75
2022-10-23T14:16:33.050Z,64.95
2022-10-23T14:21:32.972Z,65.78
2022-10-23T14:26:32.932Z,65.55
2022-10-23T14:31:32.913Z,65.48
2022-10-23T14:36:43.182Z,66.59
2022-10-23T14:41:33.798Z,65.99
2022-10-23T14:46:32.655Z,68.12
2022-10-23T14:51:33.882Z,67.35
2022-10-23T14:56:32.637Z,67.15
2022-10-23T15:01:33.647Z,68.62
2022-10-23T15:06:32.606Z,69.56
2022-10-23T15:11:32.632Z,69.66
2022-10-23T15:16:32.499Z,70.76
2022-10-23T15:21:32.290Z,73.30
2022-10-23T15:26:32.408Z,75.49
2022-10-23T15:31:32.194Z,76.32
2022-10-23T15:36:33.273Z,77.83
2022-10-23T15:41:32.150Z,78.67
2022-10-23T15:46:32.021Z,79.92
2022-10-23T15:51:32.088Z,79.11
2022-10-23T15:56:31.931Z,81.13
2022-10-23T16:01:32.007Z,82.88
2022-10-23T16:06:31.820Z,85.84
2022-10-23T16:11:31.751Z,84.43
2022-10-23T16:16:31.775Z,85.17
2022-10-23T16:21:31.650Z,86.58
2022-10-23T16:26:32.665Z,86.69
2022-10-23T16:31:31.682Z,88.75
2022-10-23T16:36:31.484Z,90.10
2022-10-23T16:41:31.576Z,90.70
2022-10-23T16:46:31.373Z,90.00
2022-10-23T16:51:31.333Z,90.81
2022-10-23T16:56:31.376Z,90.50
2022-10-23T17:01:31.458Z,91.55
2022-10-23T17:06:31.149Z,91.76
2022-10-23T17:11:31.303Z,92.41
2022-10-23T17:16:31.053Z,92.16
2022-10-23T17:21:31.173Z,92.36
2022-10-23T17:26:30.927Z,92.36
2022-10-23T17:31:30.887Z,92.61
2022-10-23T17:36:30.791Z,92.06
2022-10-23T17:41:30.844Z,91.96
2022-10-23T17:46:30.753Z,91.25
2022-10-23T17:51:30.654Z,91.80
2022-10-23T17:56:30.877Z,91.70
2022-10-23T18:01:31.662Z,92.00
2022-10-23T18:06:30.634Z,92.21
2022-10-23T18:11:30.496Z,92.25
2022-10-23T18:16:30.460Z,91.80
2022-10-23T18:21:30.297Z,92.00
2022-10-23T18:26:32.374Z,90.99
2022-10-23T18:31:30.253Z,90.89
2022-10-23T18:36:30.187Z,90.99
2022-10-23T18:41:30.117Z,91.50
2022-10-23T18:46:30.045Z,91.39
2022-10-23T18:51:34.385Z,91.74
2022-10-23T18:56:30.005Z,91.85
2022-10-23T19:01:29.948Z,92.60
2022-10-23T19:06:29.807Z,92.19
2022-10-23T19:11:29.735Z,91.58
2022-10-23T19:16:29.683Z,91.08
2022-10-23T19:21:29.737Z,90.47
2022-10-23T19:26:29.617Z,91.18
2022-10-23T19:31:29.601Z,90.78
2022-10-23T19:36:31.513Z,91.18
2022-10-23T19:41:29.546Z,90.17
2022-10-23T19:46:29.385Z,89.26
2022-10-23T19:51:29.406Z,90.21
2022-10-23T19:56:29.248Z,90.41
2022-10-23T20:01:29.294Z,91.06
2022-10-23T20:06:29.225Z,91.67
2022-10-23T20:11:29.074Z,90.31
2022-10-23T20:16:29.034Z,89.30
2022-10-23T20:21:28.976Z,89.50
2022-10-23T20:26:28.929Z,88.96
2022-10-23T20:31:29.206Z,87.70
2022-10-23T20:36:28.888Z,87.90
2022-10-23T20:41:28.794Z,87.76
2022-10-23T20:46:28.804Z,86.61
2022-10-23T20:51:28.673Z,86.71
2022-10-23T20:56:28.604Z,86.61
2022-10-23T21:01:28.620Z,87.52
2022-10-23T21:06:31.507Z,90.24
2022-10-23T21:11:29.392Z,91.39
2022-10-23T21:16:28.674Z,91.74
2022-10-23T21:21:28.354Z,91.85
2022-10-23T21:26:28.224Z,92.05
2022-10-23T21:31:28.177Z,91.64
2022-10-23T21:36:28.165Z,91.38
2022-10-23T21:41:28.125Z,91.08
2022-10-23T21:46:28.070Z,91.49
2022-10-23T21:51:27.959Z,92.68
2022-10-23T21:56:27.892Z,92.68
2022-10-23T22:01:28.098Z,92.58
2022-10-23T22:06:27.921Z,91.42
2022-10-23T22:11:27.817Z,92.08
2022-10-23T22:16:27.678Z,92.88
2022-10-23T22:21:27.625Z,92.58
2022-10-23T22:26:27.591Z,92.68
2022-10-23T22:31:27.500Z,92.18
2022-10-23T22:36:27.480Z,92.48
2022-10-23T22:41:27.513Z,90.72
2022-10-23T22:46:28.363Z,90.52
2022-10-23T22:51:27.302Z,91.02
2022-10-23T22:56:27.292Z,90.21
2022-10-23T23:01:27.467Z,89.40
2022-10-23T23:06:28.340Z,89.91
2022-10-23T23:11:27.168Z,90.01
2022-10-23T23:16:27.063Z,90.11
2022-10-23T23:21:26.990Z,89.95
2022-10-23T23:26:26.947Z,89.61
2022-10-23T23:31:26.891Z,89.95
2022-10-23T23:36:26.947Z,89.14
2022-10-23T23:41:26.950Z,88.49
2022-10-23T23:46:26.780Z,88.39
2022-10-23T23:51:26.748Z,87.04
2022-10-23T23:56:26.682Z,85.78
